Time;durP1;ratioP1;P1;durP2;ratioP2;P2;SDS_P1;SDS_P2;PMS_P1;PMS_P2;Temp;Humidity;BMP_temperature;BMP_pressure;BME280_temperature;BME280_humidity;BME280_pressure;Samples;Min_cycle;Max_cycle;Signal;HPM_P1;HPM_P2
2022/09/30 00:01:18;;;;;;;;;;;;;;;21.37;50.94;100616.03;7277979;19;152254;-54
2022/09/30 00:03:48;;;;;;;;;;;;;;;21.37;51.23;100612.38;7285464;19;152492;-55
2022/09/30 00:06:14;;;;;;;;;;;;;;;21.36;51.02;100614.34;7279916;19;152363;-55
2022/09/30 00:08:41;;;;;;;;;;;;;;;21.36;51.24;100625.59;7277901;19;152906;-54
2022/09/30 00:11:12;;;;;;;;;;;;;;;21.38;51.14;100631.75;7277625;19;153957;-55
2022/09/30 00:13:39;;;;;;;;;;;;;;;21.36;51.27;100642.47;7279152;19;152069;-55
2022/09/30 00:16:06;;;;;;;;;;;;;;;21.35;50.95;100642.81;7278304;19;153555;-55
2022/09/30 00:18:33;;;;;;;;;;;;;;;21.34;51.29;100644.78;7284051;19;154208;-54
2022/09/30 00:21:00;;;;;;;;;;;;;;;21.33;51.08;100651.53;7284751;19;152508;-55
2022/09/30 00:23:36;;;;;;;;;;;;;;;21.33;50.86;100645.09;7285690;19;154445;-55
2022/09/30 00:26:10;;;;;;;;;;;;;;;21.33;51.02;100645.94;7292242;19;154092;-55
2022/09/30 00:28:38;;;;;;;;;;;;;;;21.33;51.10;100642.28;7283669;19;153494;-54
2022/09/30 00:31:06;;;;;;;;;;;;;;;21.33;51.10;100656.34;7285337;19;154097;-54
2022/09/30 00:33:41;;;;;;;;;;;;;;;21.30;51.42;100657.81;7283267;19;152672;-54
2022/09/30 00:36:08;;;;;;;;;;;;;;;21.31;51.18;100665.06;7287238;19;153337;-55
2022/09/30 00:38:34;;;;;;;;;;;;;;;21.30;51.14;100655.81;7284112;19;154801;-54
2022/09/30 00:41:02;;;;;;;;;;;;;;;21.29;51.61;100658.97;7285400;19;153052;-55
2022/09/30 00:43:44;;;;;;;;;;;;;;;21.30;51.29;100660.63;7284847;19;153499;-55
2022/09/30 00:46:30;;;;;;;;;;;;;;;21.30;51.10;100669.88;7284402;19;152791;-54
2022/09/30 00:49:00;;;;;;;;;;;;;;;21.32;50.98;100665.91;7291900;19;151992;-54
2022/09/30 00:51:30;;;;;;;;;;;;;;;21.30;51.01;100669.88;7285876;19;153369;-55
2022/09/30 00:54:00;;;;;;;;;;;;;;;21.30;50.99;100671.88;7284728;19;151921;-54
2022/09/30 00:56:30;;;;;;;;;;;;;;;21.28;51.09;100676.97;7286347;19;154155;-54
2022/09/30 00:59:04;;;;;;;;;;;;;;;21.28;51.07;100679.78;7280351;19;154359;-54
2022/09/30 01:01:31;;;;;;;;;;;;;;;21.26;50.74;100680.09;7283554;19;152102;-54
2022/09/30 01:04:05;;;;;;;;;;;;;;;21.24;50.88;100679.59;7284777;19;153381;-55
2022/09/30 01:06:31;;;;;;;;;;;;;;;21.24;51.02;100681.56;7283973;19;154326;-55
2022/09/30 01:08:59;;;;;;;;;;;;;;;21.23;50.92;100685.53;7289801;19;152447;-55
2022/09/30 01:11:27;;;;;;;;;;;;;;;21.21;50.90;100688.66;7284480;19;154446;-55
2022/09/30 01:13:55;;;;;;;;;;;;;;;21.20;51.19;100688.97;7283439;19;152259;-54
2022/09/30 01:16:38;;;;;;;;;;;;;;;21.19;50.79;100684.50;7285777;19;152883;-54
2022/09/30 01:19:23;;;;;;;;;;;;;;;21.18;50.92;100691.28;7282784;19;154125;-54
2022/09/30 01:22:05;;;;;;;;;;;;;;;21.16;51.06;100691.59;7286228;19;153746;-55
2022/09/30 01:24:47;;;;;;;;;;;;;;;21.15;51.06;100686.28;7283310;19;152365;-54
2022/09/30 01:27:16;;;;;;;;;;;;;;;21.15;51.07;100689.09;7283278;19;152870;-54
2022/09/30 01:29:59;;;;;;;;;;;;;;;21.14;50.70;100685.47;7281788;19;152696;-54
2022/09/30 01:32:44;;;;;;;;;;;;;;;21.11;50.99;100697.31;7291072;19;152778;-55
2022/09/30 01:35:29;;;;;;;;;;;;;;;21.11;51.08;100694.50;7283635;19;152843;-54
2022/09/30 01:38:14;;;;;;;;;;;;;;;21.10;50.66;100692.00;7283624;19;154958;-54
2022/09/30 01:40:53;;;;;;;;;;;;;;;21.09;50.77;100690.34;7282156;19;153985;-54
2022/09/30 01:43:32;;;;;;;;;;;;;;;21.07;51.06;100687.88;7283961;19;152260;-54
2022/09/30 01:46:07;;;;;;;;;;;;;;;21.06;50.91;100682.56;7284325;19;153523;-54
2022/09/30 01:48:45;;;;;;;;;;;;;;;21.04;51.18;100687.66;7281290;19;154380;-55
2022/09/30 01:51:32;;;;;;;;;;;;;;;21.03;50.93;100691.63;7285163;19;152390;-54
2022/09/30 01:54:02;;;;;;;;;;;;;;;21.02;51.10;100687.16;7278473;19;153688;-55
2022/09/30 01:56:33;;;;;;;;;;;;;;;21.01;51.13;100700.38;7290647;19;154092;-54
2022/09/30 01:59:04;;;;;;;;;;;;;;;21.00;51.35;100698.69;7282757;19;153456;-54
2022/09/30 02:01:39;;;;;;;;;;;;;;;20.99;51.27;100696.19;7280173;19;153425;-55
2022/09/30 02:04:10;;;;;;;;;;;;;;;20.98;51.43;100688.94;7283220;19;152453;-54
2022/09/30 02:06:41;;;;;;;;;;;;;;;20.97;51.31;100693.72;7281897;19;153962;-54
2022/09/30 02:09:12;;;;;;;;;;;;;;;20.96;51.76;100691.22;7279873;19;152392;-55
2022/09/30 02:11:41;;;;;;;;;;;;;;;20.95;51.58;100693.19;7281584;19;152464;-54
2022/09/30 02:14:07;;;;;;;;;;;;;;;20.94;51.57;100693.53;7282715;19;153072;-54
2022/09/30 02:16:38;;;;;;;;;;;;;;;20.93;51.71;100703.94;7282969;19;154116;-55
2022/09/30 02:19:10;;;;;;;;;;;;;;;20.91;51.81;100697.78;7290021;19;152700;-55
2022/09/30 02:21:39;;;;;;;;;;;;;;;20.90;51.87;100704.56;7283519;19;154524;-55
2022/09/30 02:24:08;;;;;;;;;;;;;;;20.89;51.80;100702.91;7282182;19;152554;-55
2022/09/30 02:26:40;;;;;;;;;;;;;;;20.89;51.63;100704.88;7283808;19;153896;-54
2022/09/30 02:29:09;;;;;;;;;;;;;;;20.88;51.79;100706.03;7279524;19;154335;-55
2022/09/30 02:31:38;;;;;;;;;;;;;;;20.88;52.11;100706.03;7283672;19;152218;-55
2022/09/30 02:34:09;;;;;;;;;;;;;;;20.86;51.86;100703.53;7282843;19;152626;-54
2022/09/30 02:36:42;;;;;;;;;;;;;;;20.85;52.17;100701.84;7283469;19;153715;-54
2022/09/30 02:39:12;;;;;;;;;;;;;;;20.84;51.90;100712.28;7281146;19;152406;-55
2022/09/30 02:41:43;;;;;;;;;;;;;;;20.81;51.87;100700.84;7286303;19;153536;-55
2022/09/30 02:44:10;;;;;;;;;;;;;;;20.81;52.15;100698.84;7281643;19;152141;-55
2022/09/30 02:46:43;;;;;;;;;;;;;;;20.80;51.89;100699.19;7283305;19;153320;-55
2022/09/30 02:49:18;;;;;;;;;;;;;;;20.79;52.19;100701.16;7279877;19;154299;-54
2022/09/30 02:51:45;;;;;;;;;;;;;;;20.79;52.16;100703.16;7281435;19;152101;-54
2022/09/30 02:54:11;;;;;;;;;;;;;;;20.78;52.12;100704.28;7281119;19;153397;-54
2022/09/30 02:56:38;;;;;;;;;;;;;;;20.76;51.97;100695.34;7281778;19;152826;-54
2022/09/30 02:59:05;;;;;;;;;;;;;;;20.77;51.88;100695.03;7282261;19;152184;-54
2022/09/30 03:01:31;;;;;;;;;;;;;;;20.75;52.37;100686.09;7280566;19;153502;-56
2022/09/30 03:04:03;;;;;;;;;;;;;;;20.74;52.37;100686.41;7286842;19;152554;-54
2022/09/30 03:06:30;;;;;;;;;;;;;;;20.73;52.25;100674.34;7282051;19;152318;-54
2022/09/30 03:08:56;;;;;;;;;;;;;;;20.73;52.26;100671.53;7279470;19;154380;-54
2022/09/30 03:11:25;;;;;;;;;;;;;;;20.72;52.07;100677.47;7279417;19;152673;-54
2022/09/30 03:13:51;;;;;;;;;;;;;;;20.71;52.41;100687.88;7279868;19;153184;-54
2022/09/30 03:16:25;;;;;;;;;;;;;;;20.71;52.37;100684.25;7280563;19;152313;-54
2022/09/30 03:19:00;;;;;;;;;;;;;;;20.69;52.46;100684.56;7277037;19;153410;-55
2022/09/30 03:21:27;;;;;;;;;;;;;;;20.69;52.43;100689.34;7282786;19;152861;-54
2022/09/30 03:23:57;;;;;;;;;;;;;;;20.67;52.30;100689.63;7280890;19;154797;-54
2022/09/30 03:26:46;;;;;;;;;;;;;;;20.67;52.59;100698.06;7282832;19;153575;-55
2022/09/30 03:29:13;;;;;;;;;;;;;;;20.65;52.67;100700.38;7277749;19;152693;-54
2022/09/30 03:31:48;;;;;;;;;;;;;;;20.64;52.29;100698.69;7282583;19;152333;-55
2022/09/30 03:34:28;;;;;;;;;;;;;;;20.63;52.30;100699.84;7279735;19;152462;-54
2022/09/30 03:37:07;;;;;;;;;;;;;;;20.63;52.76;100699.84;7281522;19;153806;-54
2022/09/30 03:39:41;;;;;;;;;;;;;;;20.62;52.55;100709.44;7277232;19;152029;-54
2022/09/30 03:42:13;;;;;;;;;;;;;;;20.60;52.54;100714.53;7281426;19;153487;-54
2022/09/30 03:44:59;;;;;;;;;;;;;;;20.59;52.68;100718.47;7278611;19;153983;-54
2022/09/30 03:47:28;;;;;;;;;;;;;;;20.59;52.48;100709.22;7288049;19;151984;-54
2022/09/30 03:49:58;;;;;;;;;;;;;;;20.58;52.46;100710.38;7277498;19;156219;-54
2022/09/30 03:52:26;;;;;;;;;;;;;;;20.57;52.41;100703.09;7283012;19;152116;-54
2022/09/30 03:54:55;;;;;;;;;;;;;;;20.57;52.51;100711.53;7282909;19;153366;-54
2022/09/30 03:57:21;;;;;;;;;;;;;;;20.56;52.84;100707.03;7281661;19;153408;-55
2022/09/30 03:59:49;;;;;;;;;;;;;;;20.54;52.88;100698.91;7286231;19;152604;-54
2022/09/30 04:02:15;;;;;;;;;;;;;;;20.55;52.67;100705.38;7285671;19;154227;-54
2022/09/30 04:04:42;;;;;;;;;;;;;;;20.52;52.88;100701.22;7285758;19;154115;-54
2022/09/30 04:07:09;;;;;;;;;;;;;;;20.53;52.94;100711.31;7288223;19;151817;-54
2022/09/30 04:09:36;;;;;;;;;;;;;;;20.52;53.23;100697.59;7289994;19;152587;-54
2022/09/30 04:12:03;;;;;;;;;;;;;;;20.51;53.07;100702.38;7287883;19;152094;-54
2022/09/30 04:14:30;;;;;;;;;;;;;;;20.51;53.01;100698.72;7286645;19;153796;-54
2022/09/30 04:16:57;;;;;;;;;;;;;;;20.50;53.26;100697.91;7286269;19;154087;-54
2022/09/30 04:19:23;;;;;;;;;;;;;;;20.50;53.00;100700.69;7284867;19;152508;-54
2022/09/30 04:21:53;;;;;;;;;;;;;;;20.50;53.59;100695.09;7288183;19;152678;-54
2022/09/30 04:24:21;;;;;;;;;;;;;;;20.49;53.70;100689.81;7282257;19;153946;-54
2022/09/30 04:26:48;;;;;;;;;;;;;;;20.48;53.32;100691.78;7285557;19;151798;-54
2022/09/30 04:29:15;;;;;;;;;;;;;;;20.47;53.42;100690.13;7286051;19;152784;-54
2022/09/30 04:31:41;;;;;;;;;;;;;;;20.46;53.37;100691.25;7291150;19;152853;-54
2022/09/30 04:34:10;;;;;;;;;;;;;;;20.47;53.71;100695.72;7285441;19;153266;-54
2022/09/30 04:36:37;;;;;;;;;;;;;;;20.46;53.74;100687.59;7285288;19;154560;-54
2022/09/30 04:39:04;;;;;;;;;;;;;;;20.45;53.42;100692.38;7285061;19;151888;-54
2022/09/30 04:41:32;;;;;;;;;;;;;;;20.46;53.67;100698.84;7286187;19;152923;-54
2022/09/30 04:44:04;;;;;;;;;;;;;;;20.44;53.39;100701.16;7283712;19;153431;-54
2022/09/30 04:46:33;;;;;;;;;;;;;;;20.44;53.61;100704.78;7285917;19;152006;-56
2022/09/30 04:48:59;;;;;;;;;;;;;;;20.44;53.39;100701.16;7283678;19;153850;-54
2022/09/30 04:51:26;;;;;;;;;;;;;;;20.42;53.62;100701.44;7282696;19;153922;-55
2022/09/30 04:53:53;;;;;;;;;;;;;;;20.42;53.62;100710.69;7292926;19;153417;-54
2022/09/30 04:56:19;;;;;;;;;;;;;;;20.44;53.81;100716.00;7281334;19;152429;-54
2022/09/30 04:58:46;;;;;;;;;;;;;;;20.50;53.87;100716.72;7284248;19;151832;-54
2022/09/30 05:01:16;;;;;;;;;;;;;;;20.49;54.41;100707.44;7284554;19;152846;-55
2022/09/30 05:03:47;;;;;;;;;;;;;;;20.50;54.80;100717.53;7281468;19;152258;-55
2022/09/30 05:06:14;;;;;;;;;;;;;;;20.53;55.14;100724.53;7286000;19;152494;-54
2022/09/30 05:08:44;;;;;;;;;;;;;;;20.55;55.36;100709.00;7284794;19;153828;-54
2022/09/30 05:11:16;;;;;;;;;;;;;;;20.59;55.27;100718.47;7282403;19;153331;-54
2022/09/30 05:13:43;;;;;;;;;;;;;;;20.64;55.19;100712.75;7292131;19;152130;-54
2022/09/30 05:16:10;;;;;;;;;;;;;;;20.68;55.40;100716.56;7281903;19;154094;-55
2022/09/30 05:18:39;;;;;;;;;;;;;;;20.71;55.17;100713.16;7284319;19;151870;-54
2022/09/30 05:21:06;;;;;;;;;;;;;;;20.75;55.13;100718.97;7284621;19;153666;-54
2022/09/30 05:23:33;;;;;;;;;;;;;;;20.80;55.32;100710.44;7284002;19;153437;-54
2022/09/30 05:26:00;;;;;;;;;;;;;;;20.84;55.03;100711.47;7284386;19;152252;-54
2022/09/30 05:28:30;;;;;;;;;;;;;;;20.89;55.19;100713.31;7284659;19;153563;-54
2022/09/30 05:30:58;;;;;;;;;;;;;;;20.93;54.99;100701.13;7282056;19;153364;-54
2022/09/30 05:33:28;;;;;;;;;;;;;;;20.98;55.16;100703.81;7283948;19;151944;-54
2022/09/30 05:35:57;;;;;;;;;;;;;;;21.02;55.00;100706.81;7290544;19;155896;-54
2022/09/30 05:38:24;;;;;;;;;;;;;;;21.06;54.85;100711.47;7284900;19;152547;-55
2022/09/30 05:40:51;;;;;;;;;;;;;;;21.11;54.51;100707.72;7285382;19;154119;-54
2022/09/30 05:43:18;;;;;;;;;;;;;;;21.14;54.26;100698.69;7283087;19;154006;-55
2022/09/30 05:45:52;;;;;;;;;;;;;;;21.19;54.97;100705.00;7284189;19;152095;-55
2022/09/30 05:48:18;;;;;;;;;;;;;;;21.22;54.68;100704.34;7282437;19;153378;-54
2022/09/30 05:50:55;;;;;;;;;;;;;;;21.27;54.09;100704.22;7278702;19;153557;-55
2022/09/30 05:53:22;;;;;;;;;;;;;;;21.29;54.13;100701.94;7282327;19;152447;-55
2022/09/30 05:55:49;;;;;;;;;;;;;;;21.35;54.19;100707.44;7283783;19;153088;-55
2022/09/30 05:58:16;;;;;;;;;;;;;;;21.36;53.77;100701.47;7290827;19;154274;-55
2022/09/30 06:00:44;;;;;;;;;;;;;;;21.40;53.49;100704.47;7282325;19;153100;-55
2022/09/30 06:03:19;;;;;;;;;;;;;;;21.42;53.72;100697.41;7283216;19;154666;-55
2022/09/30 06:05:46;;;;;;;;;;;;;;;21.45;53.29;100702.38;7284618;19;153647;-55
2022/09/30 06:08:13;;;;;;;;;;;;;;;21.47;53.66;100711.31;7284433;19;153692;-55
2022/09/30 06:10:49;;;;;;;;;;;;;;;21.50;53.29;100709.84;7278800;19;152943;-55
2022/09/30 06:13:16;;;;;;;;;;;;;;;21.51;53.17;100706.72;7283997;19;152071;-55
2022/09/30 06:15:43;;;;;;;;;;;;;;;21.53;53.05;100718.47;7281343;19;153088;-55
2022/09/30 06:18:11;;;;;;;;;;;;;;;21.54;53.02;100714.50;7282578;19;152898;-55
2022/09/30 06:20:53;;;;;;;;;;;;;;;21.58;52.67;100706.25;7290332;19;152537;-55
2022/09/30 06:23:20;;;;;;;;;;;;;;;21.60;53.17;100713.22;7280552;19;154305;-54
2022/09/30 06:25:50;;;;;;;;;;;;;;;21.60;52.69;100704.78;7282351;19;152156;-55
2022/09/30 06:28:17;;;;;;;;;;;;;;;21.59;52.26;100696.66;7283333;19;154464;-56
2022/09/30 06:30:43;;;;;;;;;;;;;;;21.58;52.26;100701.47;7276911;19;153078;-55
2022/09/30 06:33:11;;;;;;;;;;;;;;;21.58;52.20;100709.91;7283817;19;152497;-56
2022/09/30 06:35:40;;;;;;;;;;;;;;;21.58;52.10;100709.06;7282547;19;153696;-55
2022/09/30 06:38:07;;;;;;;;;;;;;;;21.58;51.43;100695.00;7282689;19;153377;-55
2022/09/30 06:40:34;;;;;;;;;;;;;;;21.56;51.45;100689.72;7281045;19;152094;-55
2022/09/30 06:43:01;;;;;;;;;;;;;;;21.55;51.52;100688.06;7289273;19;153853;-55
2022/09/30 06:45:28;;;;;;;;;;;;;;;21.46;48.72;100686.34;7282095;19;151968;-54
2022/09/30 06:47:59;;;;;;;;;;;;;;;21.20;47.46;100681.38;7280665;19;153573;-55
2022/09/30 06:50:27;;;;;;;;;;;;;;;21.13;48.54;100678.19;7280719;19;153755;-54
2022/09/30 06:53:00;;;;;;;;;;;;;;;21.18;48.62;100677.22;7282145;19;153379;-54
2022/09/30 06:55:28;;;;;;;;;;;;;;;21.16;49.02;100668.28;7280413;19;153085;-54
2022/09/30 06:57:55;;;;;;;;;;;;;;;21.17;48.86;100670.75;7281714;19;153734;-54
2022/09/30 07:00:24;;;;;;;;;;;;;;;21.19;49.12;100667.66;7281197;19;152514;-54
2022/09/30 07:02:53;;;;;;;;;;;;;;;21.21;49.18;100670.97;7283292;19;153376;-54
2022/09/30 07:05:19;;;;;;;;;;;;;;;21.21;49.42;100665.34;7288576;19;152827;-55
2022/09/30 07:07:47;;;;;;;;;;;;;;;21.24;49.12;100664.72;7281738;19;153519;-54
2022/09/30 07:10:14;;;;;;;;;;;;;;;21.24;49.67;100654.31;7280270;19;154157;-54
2022/09/30 07:12:41;;;;;;;;;;;;;;;21.30;49.43;100653.00;7280702;19;152990;-54
2022/09/30 07:15:08;;;;;;;;;;;;;;;21.36;50.17;100653.72;7280878;19;153717;-55
2022/09/30 07:17:39;;;;;;;;;;;;;;;21.39;49.94;100653.09;7277418;19;153258;-54
2022/09/30 07:20:07;;;;;;;;;;;;;;;21.42;49.88;100657.22;7280636;19;152372;-57
2022/09/30 07:22:33;;;;;;;;;;;;;;;21.49;50.14;100647.16;7282188;19;152750;-54
2022/09/30 07:25:04;;;;;;;;;;;;;;;21.51;50.27;100644.88;7287330;19;153627;-54
2022/09/30 07:27:32;;;;;;;;;;;;;;;21.52;49.97;100640.91;7285681;19;152878;-54
2022/09/30 07:30:01;;;;;;;;;;;;;;;21.53;49.82;100653.78;7286539;19;153744;-54
2022/09/30 07:32:42;;;;;;;;;;;;;;;21.52;49.41;100651.34;7285765;19;152179;-54
2022/09/30 07:35:08;;;;;;;;;;;;;;;21.52;49.30;100648.53;7288026;19;152025;-54
2022/09/30 07:37:35;;;;;;;;;;;;;;;21.52;49.59;100651.34;7286673;19;153312;-54
2022/09/30 07:40:05;;;;;;;;;;;;;;;21.52;49.36;100652.16;7285742;19;155052;-54
2022/09/30 07:42:32;;;;;;;;;;;;;;;21.52;49.36;100649.34;7288473;19;153280;-54
2022/09/30 07:44:59;;;;;;;;;;;;;;;21.53;49.37;100653.78;7286001;19;153195;-54
2022/09/30 07:47:26;;;;;;;;;;;;;;;21.54;49.02;100652.66;7295735;19;151685;-54
2022/09/30 07:49:52;;;;;;;;;;;;;;;21.54;48.83;100647.03;7285536;19;154098;-54
2022/09/30 07:52:19;;;;;;;;;;;;;;;21.53;48.91;100651.00;7287579;19;152150;-54
2022/09/30 07:54:46;;;;;;;;;;;;;;;21.55;48.94;100659.09;7286595;19;153987;-54
2022/09/30 07:57:16;;;;;;;;;;;;;;;21.53;48.67;100651.00;7286413;19;154699;-54
2022/09/30 07:59:42;;;;;;;;;;;;;;;21.53;48.50;100645.38;7286445;19;152984;-54
2022/09/30 08:02:14;;;;;;;;;;;;;;;21.53;48.74;100641.75;7286229;19;152898;-54
2022/09/30 08:04:41;;;;;;;;;;;;;;;21.52;48.31;100646.53;7285599;19;154226;-54
2022/09/30 08:07:10;;;;;;;;;;;;;;;21.51;48.55;100647.69;7287552;19;152566;-54
2022/09/30 08:09:37;;;;;;;;;;;;;;;21.50;48.55;100637.59;7291754;19;154437;-54
2022/09/30 08:12:04;;;;;;;;;;;;;;;21.50;48.51;100642.38;7286312;19;152978;-54
2022/09/30 08:14:31;;;;;;;;;;;;;;;21.49;48.59;100644.34;7286037;19;154344;-54
2022/09/30 08:16:59;;;;;;;;;;;;;;;21.48;48.51;100633.44;7286716;19;153642;-54
2022/09/30 08:19:27;;;;;;;;;;;;;;;21.48;48.56;100642.72;7285369;19;154079;-54
2022/09/30 08:21:54;;;;;;;;;;;;;;;21.49;48.31;100632.28;7288336;19;152923;-54
2022/09/30 08:24:21;;;;;;;;;;;;;;;21.47;48.24;100643.88;7282013;19;154670;-54
2022/09/30 08:26:48;;;;;;;;;;;;;;;21.47;48.28;100643.03;7287294;19;154340;-54
2022/09/30 08:29:15;;;;;;;;;;;;;;;21.44;47.95;100652.91;7283325;19;153607;-53
2022/09/30 08:31:55;;;;;;;;;;;;;;;21.44;48.45;100643.69;7291627;19;153941;-53
2022/09/30 08:34:22;;;;;;;;;;;;;;;21.43;48.38;100636.41;7285884;19;153625;-54
2022/09/30 08:36:49;;;;;;;;;;;;;;;21.42;48.39;100632.75;7285535;19;153365;-54
2022/09/30 08:39:16;;;;;;;;;;;;;;;21.41;48.04;100625.47;7284597;19;152655;-54
2022/09/30 08:41:45;;;;;;;;;;;;;;;21.40;48.15;100622.97;7286359;19;153771;-54
2022/09/30 08:44:27;;;;;;;;;;;;;;;21.39;48.18;100619.34;7283694;19;153425;-54
2022/09/30 08:46:59;;;;;;;;;;;;;;;21.36;48.16;100616.34;7286375;19;153363;-54
2022/09/30 08:49:44;;;;;;;;;;;;;;;21.35;47.86;100614.69;7283628;19;153646;-54
2022/09/30 08:52:13;;;;;;;;;;;;;;;21.33;48.12;100625.41;7285048;19;153340;-54
2022/09/30 08:55:00;;;;;;;;;;;;;;;21.30;48.33;100633.34;7292279;19;152837;-54
2022/09/30 08:57:31;;;;;;;;;;;;;;;21.29;48.11;100620.44;7284554;19;154304;-54
2022/09/30 09:00:00;;;;;;;;;;;;;;;21.29;48.39;100630.88;7284382;19;152418;-54
2022/09/30 09:02:31;;;;;;;;;;;;;;;21.31;48.05;100625.72;7282620;19;153055;-54
2022/09/30 09:05:00;;;;;;;;;;;;;;;21.28;48.14;100632.00;7283477;19;154426;-54
2022/09/30 09:07:30;;;;;;;;;;;;;;;21.26;48.28;100623.88;7282466;19;152144;-54
2022/09/30 09:10:12;;;;;;;;;;;;;;;21.26;48.07;100612.66;7284971;19;153919;-54
2022/09/30 09:12:53;;;;;;;;;;;;;;;21.26;48.29;100609.84;7282299;19;157016;-54
2022/09/30 09:15:32;;;;;;;;;;;;;;;21.24;48.47;100608.50;7284488;19;151813;-54
2022/09/30 09:18:05;;;;;;;;;;;;;;;21.20;48.51;100611.16;7292228;19;153462;-54
2022/09/30 09:21:14;;;;;;;;;;;;;;;21.24;48.51;100602.91;7283488;19;152160;-54
2022/09/30 09:23:41;;;;;;;;;;;;;;;21.24;48.40;100602.91;7282917;19;153639;-54
2022/09/30 09:26:10;;;;;;;;;;;;;;;21.21;48.74;100598.72;7284798;19;154377;-54
2022/09/30 09:28:42;;;;;;;;;;;;;;;21.23;48.54;100595.59;7243711;19;158133;-54
2022/09/30 09:31:15;;;;;;;;;;;;;;;21.20;48.33;100599.91;7277332;19;153967;-54
2022/09/30 09:33:42;;;;;;;;;;;;;;;21.17;48.25;100588.47;7276805;19;152664;-54
2022/09/30 09:36:09;;;;;;;;;;;;;;;21.16;48.45;100582.03;7282905;19;153015;-54
2022/09/30 09:38:45;;;;;;;;;;;;;;;21.17;48.40;100591.25;7286833;19;153535;-54
2022/09/30 09:41:11;;;;;;;;;;;;;;;21.16;48.74;100590.47;7282816;19;152203;-55
2022/09/30 09:43:57;;;;;;;;;;;;;;;21.16;48.94;100596.09;7282648;19;153179;-54
2022/09/30 09:46:26;;;;;;;;;;;;;;;21.16;48.54;100596.09;7281197;19;153868;-54
2022/09/30 09:49:19;;;;;;;;;;;;;;;21.15;48.74;100594.41;7281273;19;153574;-54
2022/09/30 09:51:58;;;;;;;;;;;;;;;21.14;48.75;100592.75;7283488;19;152562;-54
2022/09/30 09:54:27;;;;;;;;;;;;;;;21.14;48.95;100595.56;7278903;19;153415;-54
2022/09/30 09:56:53;;;;;;;;;;;;;;;21.14;48.58;100600.34;7273579;19;152399;-54
2022/09/30 09:59:20;;;;;;;;;;;;;;;21.13;48.85;100590.25;7281268;19;153459;-54
2022/09/30 10:01:49;;;;;;;;;;;;;;;21.12;48.56;100588.59;7287844;19;153829;-54
2022/09/30 10:04:25;;;;;;;;;;;;;;;21.11;48.94;100595.34;7280224;19;154714;-54
2022/09/30 10:06:59;;;;;;;;;;;;;;;21.10;48.71;100585.25;7280728;19;154235;-54
2022/09/30 10:09:30;;;;;;;;;;;;;;;21.09;49.14;100575.16;7280557;19;152063;-54
2022/09/30 10:12:03;;;;;;;;;;;;;;;21.08;48.80;100563.09;7281620;19;152810;-55
2022/09/30 10:14:31;;;;;;;;;;;;;;;21.10;49.14;100563.63;7278970;19;152992;-55
2022/09/30 10:17:02;;;;;;;;;;;;;;;21.12;48.81;100558.47;7283232;19;152045;-54
2022/09/30 10:19:33;;;;;;;;;;;;;;;21.16;48.79;100561.53;7279770;19;154352;-54
2022/09/30 10:22:06;;;;;;;;;;;;;;;21.13;49.14;100551.75;7277995;19;153866;-54
2022/09/30 10:24:34;;;;;;;;;;;;;;;21.13;49.13;100546.13;7274819;19;152926;-53
2022/09/30 10:27:01;;;;;;;;;;;;;;;21.15;49.36;100540.22;7271506;19;154600;-53
2022/09/30 10:29:34;;;;;;;;;;;;;;;21.17;49.47;100535.91;7272691;19;154155;-53
2022/09/30 10:32:06;;;;;;;;;;;;;;;21.19;49.47;100529.97;7274247;19;153244;-54
2022/09/30 10:34:35;;;;;;;;;;;;;;;21.20;49.24;100540.06;7276819;19;154505;-54
2022/09/30 10:37:07;;;;;;;;;;;;;;;21.20;49.24;100532.47;7274769;19;152429;-53
2022/09/30 10:39:35;;;;;;;;;;;;;;;21.21;49.35;100531.28;7274952;19;152326;-54
2022/09/30 10:42:16;;;;;;;;;;;;;;;21.23;49.44;100529.00;7276983;19;153468;-54
2022/09/30 10:44:56;;;;;;;;;;;;;;;21.26;49.12;100524.69;7275263;19;152933;-53
2022/09/30 10:47:27;;;;;;;;;;;;;;;21.27;48.90;100523.56;7283816;19;154603;-53
2022/09/30 10:49:59;;;;;;;;;;;;;;;21.30;49.01;100518.13;7274891;19;153392;-53
2022/09/30 10:52:27;;;;;;;;;;;;;;;21.31;49.02;100518.94;7277063;19;152091;-54
2022/09/30 10:54:56;;;;;;;;;;;;;;;21.31;48.92;100507.72;7271196;19;154873;-54
2022/09/30 10:57:29;;;;;;;;;;;;;;;21.33;48.71;100510.19;7276011;19;154100;-54
2022/09/30 10:59:59;;;;;;;;;;;;;;;21.34;48.65;100498.66;7273691;19;152768;-54
2022/09/30 11:02:44;;;;;;;;;;;;;;;21.35;48.71;100505.91;7268904;19;153561;-54
2022/09/30 11:05:21;;;;;;;;;;;;;;;21.36;48.42;100487.06;7274050;19;152226;-54
2022/09/30 11:07:48;;;;;;;;;;;;;;;21.38;48.33;100485.59;7275713;19;153285;-54
2022/09/30 11:10:21;;;;;;;;;;;;;;;21.38;48.68;100473.53;7282444;19;154628;-54
2022/09/30 11:13:08;;;;;;;;;;;;;;;21.40;48.70;100474.00;7270617;19;153219;-53
2022/09/30 11:15:40;;;;;;;;;;;;;;;21.41;48.63;100476.50;7274108;19;154686;-54
2022/09/30 11:18:21;;;;;;;;;;;;;;;21.41;48.28;100479.31;7280897;19;153090;-53
2022/09/30 11:21:04;;;;;;;;;;;;;;;21.42;48.32;100472.56;7278527;19;154006;-53
2022/09/30 11:23:43;;;;;;;;;;;;;;;21.42;47.96;100472.56;7278852;19;154287;-54
2022/09/30 11:26:15;;;;;;;;;;;;;;;21.42;47.97;100463.28;7276188;19;152247;-53
2022/09/30 11:28:48;;;;;;;;;;;;;;;21.43;47.72;100465.78;7275506;19;154148;-53
2022/09/30 11:31:17;;;;;;;;;;;;;;;21.45;47.64;100460.63;7273886;19;154302;-53
2022/09/30 11:33:50;;;;;;;;;;;;;;;21.44;47.65;100458.97;7283741;19;152706;-53
2022/09/30 11:36:29;;;;;;;;;;;;;;;21.44;47.78;100444.94;7265252;19;154138;-53
2022/09/30 11:39:15;;;;;;;;;;;;;;;21.46;47.65;100433.38;7278484;19;152288;-53
2022/09/30 11:41:47;;;;;;;;;;;;;;;21.48;47.37;100425.44;7277450;19;154652;-54
2022/09/30 11:44:20;;;;;;;;;;;;;;;21.46;47.40;100420.16;7276611;19;153986;-53
2022/09/30 11:46:53;;;;;;;;;;;;;;;21.47;47.71;100410.56;7279372;19;152431;-54
2022/09/30 11:49:19;;;;;;;;;;;;;;;21.45;47.28;100424.09;7276620;19;152715;-54
2022/09/30 11:51:52;;;;;;;;;;;;;;;21.47;47.27;100416.19;7278016;19;154808;-54
2022/09/30 11:54:34;;;;;;;;;;;;;;;21.42;46.77;100399.47;7282653;19;152357;-54
2022/09/30 11:57:18;;;;;;;;;;;;;;;21.39;47.05;100404.94;7278951;19;154369;-54
2022/09/30 11:59:50;;;;;;;;;;;;;;;21.37;47.41;100404.41;7278244;19;152996;-54
2022/09/30 12:02:26;;;;;;;;;;;;;;;21.37;47.40;100390.38;7232658;19;156233;-53
2022/09/30 12:04:56;;;;;;;;;;;;;;;21.35;47.67;100404.72;7274762;19;153435;-53
2022/09/30 12:07:33;;;;;;;;;;;;;;;21.36;47.68;100389.53;7263728;19;156536;-53
2022/09/30 12:10:04;;;;;;;;;;;;;;;21.37;47.50;100381.94;7277830;19;152579;-54
2022/09/30 12:12:31;;;;;;;;;;;;;;;21.37;47.44;100385.56;7276525;19;154426;-54
2022/09/30 12:15:01;;;;;;;;;;;;;;;21.34;47.54;100383.44;7284753;19;152302;-54
2022/09/30 12:17:40;;;;;;;;;;;;;;;21.33;47.54;100378.97;7291268;19;152711;-53
2022/09/30 12:20:15;;;;;;;;;;;;;;;21.34;47.65;100376.97;7280499;19;152646;-54
2022/09/30 12:22:44;;;;;;;;;;;;;;;21.32;47.59;100363.25;7282962;19;153482;-53
2022/09/30 12:25:23;;;;;;;;;;;;;;;21.32;47.32;100348.38;7283065;19;153673;-54
2022/09/30 12:27:50;;;;;;;;;;;;;;;21.32;47.59;100351.16;7281389;19;152271;-54
2022/09/30 12:30:19;;;;;;;;;;;;;;;21.33;47.45;100352.84;7279869;19;153748;-53
2022/09/30 12:32:55;;;;;;;;;;;;;;;21.33;47.56;100345.25;7279084;19;154797;-54
2022/09/30 12:35:33;;;;;;;;;;;;;;;21.33;47.90;100338.78;7283660;19;152149;-54
2022/09/30 12:38:18;;;;;;;;;;;;;;;21.33;47.41;100317.13;7282801;19;153860;-54
2022/09/30 12:41:04;;;;;;;;;;;;;;;21.33;47.36;100316.31;7280437;19;154203;-54
2022/09/30 12:44:04;;;;;;;;;;;;;;;21.31;47.38;100316.63;7279177;19;153241;-54
2022/09/30 12:46:37;;;;;;;;;;;;;;;21.30;47.23;100301.75;7278344;19;153833;-54
2022/09/30 12:49:05;;;;;;;;;;;;;;;21.30;47.18;100300.94;7278529;19;153063;-54